• Join FlightAware (Why Join?)
  • Login
  • US Flag 
03:24AM EDT


 

Airport Tracker/Info


-or-


 

Live Flight TrackerFlight Track Log ✈ UAL6044 ✈ 26-Apr-2013 ✈ KIND - KIAD

Flight Track Log - Related Links

Times and Time Zones

All times are in EDT time to prevent confusion due to time zone crossing. See the UAL6044 flight status page for this flight to view local times or setup timezone preferences in your user account.

Time Position Orientation Groundspeed Altitude Reporting Facility
EDT Latitude Longitude Course Direction KTS MPH feet Rate Location/Type
02:47PM 39.6333 -86.3167 191° South 219 252 4,100  Level Indianapolis TRACON
02:48PM 39.6500 -86.2167 78° East 274 315 6,700 2,460 Climbing Indianapolis TRACON
02:49PM 39.7760 -85.8571 83° East  Level FlightAware Approximate
02:50PM 39.7942 -85.7133 79° East  Level FlightAware Approximate
02:50PM 39.6767 -86.0839 75° East 273 314 10,600  Level Indianapolis Center
02:51PM 39.8161 -85.5703 79° East  Level FlightAware Approximate
02:52PM 39.7347 -85.8514 72° East 356 410 13,100  Level Indianapolis Center
02:53PM 39.7675 -85.7194 72° East 379 436 14,700 1,560 Climbing Indianapolis Center
02:54PM 39.8006 -85.5836 72° East 391 450 16,400 1,500 Climbing Indianapolis Center
02:55PM 39.8333 -85.4469 73° East 394 453 17,800 1,440 Climbing Indianapolis Center
02:56PM 39.8736 -85.2828 72° East 406 467 19,400 1,200 Climbing Indianapolis Center
02:57PM 39.8886 -85.1272 83° East 434 499 20,400 960 Climbing Indianapolis Center
02:58PM 39.8917 -84.9661 89° East 445 512 21,500 1,080 Climbing Indianapolis Center
02:59PM 39.8919 -84.8114 90° East 452 520 22,700 1,200 Climbing Indianapolis Center
03:00PM 39.8931 -84.6172 90° East 455 524 24,100 1,200 Climbing Indianapolis Center
03:01PM 39.8928 -84.4456 90° East 469 540 25,200 960 Climbing Indianapolis Center
03:02PM 39.8931 -84.2722 90° East 474 545 26,200 1,140 Climbing Indianapolis Center
03:03PM 39.8942 -84.1003 89° East 473 544 27,600 1,380 Climbing Indianapolis Center
03:04PM 39.8933 -83.9308 90° East 464 534 29,100 1,380 Climbing Indianapolis Center
03:05PM 39.8928 -83.7636 90° East 458 527 30,500 1,200 Climbing Indianapolis Center
03:06PM 39.8903 -83.5947 91° East 459 528 31,600 1,020 Climbing Indianapolis Center
03:07PM 39.8783 -83.4025 95° East 468 539 32,700 900 Climbing Indianapolis Center
03:08PM 39.8650 -83.2386 96° East 475 547 33,500 780 Climbing Indianapolis Center
03:09PM 39.8514 -83.0631 96° East 481 554 34,400 720 Climbing Indianapolis Center
03:10PM 39.8375 -82.8861 96° East 486 559 35,000 240 Climbing Indianapolis Center
03:11PM 39.8203 -82.6711 96° East 505 581 35,000  Level Indianapolis Center
03:13PM 39.8042 -82.4792 96° East 528 608 35,000  Level Indianapolis Center
03:14PM 39.7875 -82.2833 96° East 540 621 35,000  Level Indianapolis Center
03:15PM 39.7711 -82.0881 96° East 540 621 35,000  Level Indianapolis Center
03:16PM 39.7539 -81.8944 97° East 536 617 35,000  Level Indianapolis Center
03:17PM 39.7364 -81.6997 97° East 537 618 35,000  Level Indianapolis Center
03:17PM 39.7331 -81.6142 93° East 525 604 35,000  Level Cleveland Center
03:18PM 39.7158 -81.4222 97° East 530 610 35,000  Level Cleveland Center
03:19PM 39.6964 -81.2253 97° East 542 624 35,000  Level Cleveland Center
03:20PM 39.6764 -81.0281 97° East 542 624 35,000  Level Cleveland Center
03:21PM 39.6500 -80.8122 99° East 550 633 35,000  Level Cleveland Center
03:22PM 39.6294 -80.6181 98° East 550 633 35,000 -480 Level Cleveland Center
03:23PM 39.6083 -80.4242 98° East 544 626 34,100 -1,020 Descending Cleveland Center
03:24PM 39.5850 -80.2303 99° East 544 626 33,000 -1,320 Descending Cleveland Center
03:25PM 39.5636 -80.0392 98° East 544 626 31,500 -1,380 Descending Cleveland Center
03:27PM 39.5275 -79.7431 99° East 521 600 29,200 -1,620 Descending Washington Center
03:28PM 39.5044 -79.5617 99° East 516 594 27,100 -1,620 Descending Washington Center
03:29PM 39.4747 -79.3906 103° East 498 573 26,000 -1,380 Descending Washington Center
03:30PM 39.4444 -79.2222 103° East 472 543 24,400 -1,440 Descending Washington Center
03:31PM 39.4156 -79.0706 104° East 441 507 23,200 -2,160 Descending Washington Center
03:32PM 39.3906 -78.9214 102° East 419 482 20,200 -2,880 Descending Washington Center
03:33PM 39.3631 -78.7833 104° East 411 473 17,600 -2,880 Descending Washington Center
03:34PM 39.3394 -78.6481 103° East 398 458 14,400 -2,340 Descending Washington Center
03:35PM 39.3156 -78.5211 104° East 381 438 13,000 -1,560 Descending Washington Center
03:36PM 39.2897 -78.3833 104° East 363 418 11,300 -1,080 Descending Washington Center
03:37PM 39.2439 -78.2822 120° Southeast 343 395 10,900 -540 Descending Washington Center
03:38PM 39.1939 -78.1919 126° Southeast 325 374 10,300 -1,140 Descending Washington Center
03:39PM 39.1458 -78.1019 125° Southeast 312 359 8,600 -1,680 Descending Washington Center
03:40PM 39.0975 -78.0175 126° Southeast 300 345 7,000 -900 Descending Washington Center
03:41PM 39.0250 -77.9883 163° South 272 313 6,900  Descending Washington Center
03:42PM 38.9914 -77.9017 116° Southeast 251 289 7,000 -300 Climbing Washington Center
03:44PM 38.9500 -77.6833 104° East 274 315 6,000 -300 Descending Potomac TRACON
03:45PM 38.9167 -77.6000 117° Southeast 248 285 6,100  Climbing Potomac TRACON
03:46PM 38.8500 -77.5667 159° South 231 266 6,100 -360 Level Potomac TRACON
03:47PM 38.7833 -77.5833 191° South 219 252 5,400 -600 Descending Potomac TRACON
03:48PM 38.7333 -77.5833 180° South 221 254 5,000 -660 Descending Potomac TRACON
03:49PM 38.7167 -77.5167 108° East 234 269 4,100 -540 Descending Potomac TRACON
03:50PM 38.7500 -77.4667 49° Northeast 224 258 4,000 -660 Descending Potomac TRACON
03:51PM 38.8167 -77.4667 360° North 222 255 2,800 -1,200 Descending Potomac TRACON